sensor_id;sensor_type;location;lat;lon;timestamp;temperature;humidity
983;DHT22;480;48.124;11.578;2023-04-06T00:01:43;4.00;98.50
983;DHT22;480;48.124;11.578;2023-04-06T00:04:11;3.90;98.70
983;DHT22;480;48.124;11.578;2023-04-06T00:06:38;3.90;98.90
983;DHT22;480;48.124;11.578;2023-04-06T00:09:05;3.90;99.00
983;DHT22;480;48.124;11.578;2023-04-06T00:11:35;3.90;98.90
983;DHT22;480;48.124;11.578;2023-04-06T00:14:02;3.90;98.70
983;DHT22;480;48.124;11.578;2023-04-06T00:16:29;3.80;98.90
983;DHT22;480;48.124;11.578;2023-04-06T00:18:57;3.90;98.90
983;DHT22;480;48.124;11.578;2023-04-06T00:21:24;3.80;98.90
983;DHT22;480;48.124;11.578;2023-04-06T00:23:52;3.80;99.00
983;DHT22;480;48.124;11.578;2023-04-06T00:26:19;3.80;99.00
983;DHT22;480;48.124;11.578;2023-04-06T00:28:48;3.70;99.30
983;DHT22;480;48.124;11.578;2023-04-06T00:31:17;3.70;99.50
983;DHT22;480;48.124;11.578;2023-04-06T00:33:45;3.70;99.40
983;DHT22;480;48.124;11.578;2023-04-06T00:36:12;3.70;99.30
983;DHT22;480;48.124;11.578;2023-04-06T00:38:39;3.70;99.30
983;DHT22;480;48.124;11.578;2023-04-06T00:41:06;3.70;99.50
983;DHT22;480;48.124;11.578;2023-04-06T00:43:33;3.60;99.50
983;DHT22;480;48.124;11.578;2023-04-06T00:46:02;3.60;99.70
983;DHT22;480;48.124;11.578;2023-04-06T00:48:29;3.70;99.90
983;DHT22;480;48.124;11.578;2023-04-06T00:50:57;3.60;99.90
983;DHT22;480;48.124;11.578;2023-04-06T00:53:24;3.50;99.90
983;DHT22;480;48.124;11.578;2023-04-06T00:55:52;3.50;99.90
983;DHT22;480;48.124;11.578;2023-04-06T00:58:19;3.60;99.90
983;DHT22;480;48.124;11.578;2023-04-06T01:00:46;3.60;99.90
983;DHT22;480;48.124;11.578;2023-04-06T01:03:15;3.60;99.90
983;DHT22;480;48.124;11.578;2023-04-06T01:05:42;3.50;99.50
983;DHT22;480;48.124;11.578;2023-04-06T01:08:10;3.50;99.70
983;DHT22;480;48.124;11.578;2023-04-06T01:10:37;3.50;99.70
983;DHT22;480;48.124;11.578;2023-04-06T01:13:04;3.50;99.60
983;DHT22;480;48.124;11.578;2023-04-06T01:15:33;3.40;99.50
983;DHT22;480;48.124;11.578;2023-04-06T01:18:04;3.40;99.90
983;DHT22;480;48.124;11.578;2023-04-06T01:20:34;3.40;99.80
983;DHT22;480;48.124;11.578;2023-04-06T01:23:06;3.30;99.70
983;DHT22;480;48.124;11.578;2023-04-06T01:25:33;3.30;99.30
983;DHT22;480;48.124;11.578;2023-04-06T01:28:00;3.30;99.20
983;DHT22;480;48.124;11.578;2023-04-06T01:30:27;3.30;99.10
983;DHT22;480;48.124;11.578;2023-04-06T01:32:55;3.30;99.50
983;DHT22;480;48.124;11.578;2023-04-06T01:35:22;3.20;99.10
983;DHT22;480;48.124;11.578;2023-04-06T01:37:49;3.20;99.10
983;DHT22;480;48.124;11.578;2023-04-06T01:40:18;3.20;99.10
983;DHT22;480;48.124;11.578;2023-04-06T01:42:46;3.20;98.90
983;DHT22;480;48.124;11.578;2023-04-06T01:45:15;3.10;99.00
983;DHT22;480;48.124;11.578;2023-04-06T01:47:43;3.20;99.30
983;DHT22;480;48.124;11.578;2023-04-06T01:50:10;3.10;99.30
983;DHT22;480;48.124;11.578;2023-04-06T01:52:37;3.20;99.40
983;DHT22;480;48.124;11.578;2023-04-06T01:55:05;3.20;99.30
983;DHT22;480;48.124;11.578;2023-04-06T01:57:33;3.00;99.20
983;DHT22;480;48.124;11.578;2023-04-06T02:00:03;3.00;99.60
983;DHT22;480;48.124;11.578;2023-04-06T02:02:30;3.00;99.80
983;DHT22;480;48.124;11.578;2023-04-06T02:04:57;3.00;99.70
983;DHT22;480;48.124;11.578;2023-04-06T02:07:24;3.00;99.70
983;DHT22;480;48.124;11.578;2023-04-06T02:09:54;3.00;99.50
983;DHT22;480;48.124;11.578;2023-04-06T02:12:22;2.90;99.70
983;DHT22;480;48.124;11.578;2023-04-06T02:14:50;2.80;99.50
983;DHT22;480;48.124;11.578;2023-04-06T02:17:19;2.80;99.90
983;DHT22;480;48.124;11.578;2023-04-06T02:19:46;2.80;99.90
983;DHT22;480;48.124;11.578;2023-04-06T02:22:13;2.80;99.90
983;DHT22;480;48.124;11.578;2023-04-06T02:24:40;2.90;99.90
983;DHT22;480;48.124;11.578;2023-04-06T02:27:07;3.00;99.90
983;DHT22;480;48.124;11.578;2023-04-06T02:29:34;3.00;99.90
983;DHT22;480;48.124;11.578;2023-04-06T02:32:04;2.90;99.90
983;DHT22;480;48.124;11.578;2023-04-06T02:34:31;2.90;99.90
983;DHT22;480;48.124;11.578;2023-04-06T02:36:58;2.80;99.90
983;DHT22;480;48.124;11.578;2023-04-06T02:39:25;2.70;99.90
983;DHT22;480;48.124;11.578;2023-04-06T02:41:52;2.80;99.90
983;DHT22;480;48.124;11.578;2023-04-06T02:44:21;2.80;99.90
983;DHT22;480;48.124;11.578;2023-04-06T02:46:48;2.70;99.90
983;DHT22;480;48.124;11.578;2023-04-06T02:49:17;2.50;99.90
983;DHT22;480;48.124;11.578;2023-04-06T02:51:44;2.50;99.90
983;DHT22;480;48.124;11.578;2023-04-06T02:54:11;2.50;99.90
983;DHT22;480;48.124;11.578;2023-04-06T02:56:38;2.50;99.90
983;DHT22;480;48.124;11.578;2023-04-06T02:59:06;2.40;99.90
983;DHT22;480;48.124;11.578;2023-04-06T03:01:33;2.40;99.90
983;DHT22;480;48.124;11.578;2023-04-06T03:04:00;2.50;99.90
983;DHT22;480;48.124;11.578;2023-04-06T03:06:28;2.40;99.90
983;DHT22;480;48.124;11.578;2023-04-06T03:08:56;2.40;99.90
983;DHT22;480;48.124;11.578;2023-04-06T03:11:23;2.30;99.90
983;DHT22;480;48.124;11.578;2023-04-06T03:13:52;2.30;99.90
983;DHT22;480;48.124;11.578;2023-04-06T03:16:19;2.40;99.90
983;DHT22;480;48.124;11.578;2023-04-06T03:18:46;2.50;99.90
983;DHT22;480;48.124;11.578;2023-04-06T03:21:13;2.50;99.90
983;DHT22;480;48.124;11.578;2023-04-06T03:23:43;2.50;99.90
983;DHT22;480;48.124;11.578;2023-04-06T03:26:10;2.50;99.90
983;DHT22;480;48.124;11.578;2023-04-06T03:28:37;2.40;99.90
983;DHT22;480;48.124;11.578;2023-04-06T03:31:04;2.50;99.90
983;DHT22;480;48.124;11.578;2023-04-06T03:33:31;2.50;99.90
983;DHT22;480;48.124;11.578;2023-04-06T03:35:59;2.40;99.90
983;DHT22;480;48.124;11.578;2023-04-06T03:38:26;2.30;99.90
983;DHT22;480;48.124;11.578;2023-04-06T03:40:54;2.40;99.90
983;DHT22;480;48.124;11.578;2023-04-06T03:43:21;2.50;99.90
983;DHT22;480;48.124;11.578;2023-04-06T03:45:48;2.50;99.90
983;DHT22;480;48.124;11.578;2023-04-06T03:48:15;2.60;99.90
983;DHT22;480;48.124;11.578;2023-04-06T03:50:42;2.40;99.90
983;DHT22;480;48.124;11.578;2023-04-06T03:53:10;2.50;99.90
983;DHT22;480;48.124;11.578;2023-04-06T03:55:37;2.40;99.90
983;DHT22;480;48.124;11.578;2023-04-06T03:58:05;2.40;99.90
983;DHT22;480;48.124;11.578;2023-04-06T04:00:32;2.30;99.90
983;DHT22;480;48.124;11.578;2023-04-06T04:02:59;2.30;99.90
983;DHT22;480;48.124;11.578;2023-04-06T04:05:27;2.30;99.90
983;DHT22;480;48.124;11.578;2023-04-06T04:07:55;2.40;99.90
983;DHT22;480;48.124;11.578;2023-04-06T04:10:22;2.50;99.90
983;DHT22;480;48.124;11.578;2023-04-06T04:12:49;2.50;99.90
983;DHT22;480;48.124;11.578;2023-04-06T04:15:18;2.60;99.90
983;DHT22;480;48.124;11.578;2023-04-06T04:17:45;2.50;99.90
983;DHT22;480;48.124;11.578;2023-04-06T04:20:14;2.30;99.90
983;DHT22;480;48.124;11.578;2023-04-06T04:22:42;2.30;99.90
983;DHT22;480;48.124;11.578;2023-04-06T04:25:09;2.20;99.90
983;DHT22;480;48.124;11.578;2023-04-06T04:27:36;2.30;99.90
983;DHT22;480;48.124;11.578;2023-04-06T04:30:04;2.30;99.90
983;DHT22;480;48.124;11.578;2023-04-06T04:32:32;2.30;99.90
983;DHT22;480;48.124;11.578;2023-04-06T04:35:00;2.40;99.90
983;DHT22;480;48.124;11.578;2023-04-06T04:37:27;2.40;99.90
983;DHT22;480;48.124;11.578;2023-04-06T04:39:54;2.30;99.90
983;DHT22;480;48.124;11.578;2023-04-06T04:42:21;2.30;99.90
983;DHT22;480;48.124;11.578;2023-04-06T04:44:48;2.20;99.90
983;DHT22;480;48.124;11.578;2023-04-06T04:47:15;2.20;99.90
983;DHT22;480;48.124;11.578;2023-04-06T04:49:44;2.10;99.90
983;DHT22;480;48.124;11.578;2023-04-06T04:52:11;1.90;99.90
983;DHT22;480;48.124;11.578;2023-04-06T04:54:38;2.00;99.90
983;DHT22;480;48.124;11.578;2023-04-06T04:57:06;1.80;99.90
983;DHT22;480;48.124;11.578;2023-04-06T04:59:34;1.80;99.90
983;DHT22;480;48.124;11.578;2023-04-06T05:02:01;1.80;99.90
983;DHT22;480;48.124;11.578;2023-04-06T05:04:28;1.80;99.90
983;DHT22;480;48.124;11.578;2023-04-06T05:07:04;1.90;99.90
983;DHT22;480;48.124;11.578;2023-04-06T05:09:31;1.90;99.90
983;DHT22;480;48.124;11.578;2023-04-06T05:11:58;1.90;99.90
983;DHT22;480;48.124;11.578;2023-04-06T05:14:26;1.80;99.90
983;DHT22;480;48.124;11.578;2023-04-06T05:16:53;1.70;99.90
983;DHT22;480;48.124;11.578;2023-04-06T05:19:21;1.80;99.90
983;DHT22;480;48.124;11.578;2023-04-06T05:21:48;1.50;99.90
983;DHT22;480;48.124;11.578;2023-04-06T05:24:17;1.30;99.90
983;DHT22;480;48.124;11.578;2023-04-06T05:26:44;1.30;99.90
983;DHT22;480;48.124;11.578;2023-04-06T05:29:16;1.30;99.90
983;DHT22;480;48.124;11.578;2023-04-06T05:32:02;1.40;99.90
983;DHT22;480;48.124;11.578;2023-04-06T05:34:31;1.40;99.90
983;DHT22;480;48.124;11.578;2023-04-06T05:36:59;1.60;99.90
983;DHT22;480;48.124;11.578;2023-04-06T05:39:30;1.80;99.90
983;DHT22;480;48.124;11.578;2023-04-06T05:41:57;2.00;99.90
983;DHT22;480;48.124;11.578;2023-04-06T05:44:25;2.00;99.90
983;DHT22;480;48.124;11.578;2023-04-06T05:46:52;2.20;99.90
983;DHT22;480;48.124;11.578;2023-04-06T05:49:19;2.20;99.90
983;DHT22;480;48.124;11.578;2023-04-06T05:51:46;2.10;99.90
983;DHT22;480;48.124;11.578;2023-04-06T05:54:13;2.20;99.90
983;DHT22;480;48.124;11.578;2023-04-06T05:56:42;2.20;99.90
983;DHT22;480;48.124;11.578;2023-04-06T05:59:09;2.10;99.90
983;DHT22;480;48.124;11.578;2023-04-06T06:01:37;2.10;99.90
983;DHT22;480;48.124;11.578;2023-04-06T06:04:05;2.10;99.90
983;DHT22;480;48.124;11.578;2023-04-06T06:06:32;2.10;99.90
983;DHT22;480;48.124;11.578;2023-04-06T06:08:59;2.20;99.90
983;DHT22;480;48.124;11.578;2023-04-06T06:11:29;2.40;99.90
983;DHT22;480;48.124;11.578;2023-04-06T06:13:57;2.60;99.90
983;DHT22;480;48.124;11.578;2023-04-06T06:16:25;2.80;99.90
983;DHT22;480;48.124;11.578;2023-04-06T06:18:52;2.80;99.90
983;DHT22;480;48.124;11.578;2023-04-06T06:21:19;2.80;99.90
983;DHT22;480;48.124;11.578;2023-04-06T06:23:46;3.00;99.90
983;DHT22;480;48.124;11.578;2023-04-06T06:26:15;3.20;99.90
983;DHT22;480;48.124;11.578;2023-04-06T06:28:42;3.30;99.90
983;DHT22;480;48.124;11.578;2023-04-06T06:31:11;3.40;99.90
983;DHT22;480;48.124;11.578;2023-04-06T06:33:38;3.50;99.90
983;DHT22;480;48.124;11.578;2023-04-06T06:36:05;3.60;99.90
983;DHT22;480;48.124;11.578;2023-04-06T06:38:33;3.60;99.90
983;DHT22;480;48.124;11.578;2023-04-06T06:41:00;3.80;99.90
983;DHT22;480;48.124;11.578;2023-04-06T06:43:27;3.80;99.90
983;DHT22;480;48.124;11.578;2023-04-06T06:45:55;3.90;99.90
983;DHT22;480;48.124;11.578;2023-04-06T06:48:23;3.80;99.90
983;DHT22;480;48.124;11.578;2023-04-06T06:50:50;4.10;99.90
983;DHT22;480;48.124;11.578;2023-04-06T06:53:17;4.20;99.90
983;DHT22;480;48.124;11.578;2023-04-06T06:55:44;4.40;99.90
983;DHT22;480;48.124;11.578;2023-04-06T06:58:11;4.40;99.90
983;DHT22;480;48.124;11.578;2023-04-06T07:00:39;4.50;99.90
983;DHT22;480;48.124;11.578;2023-04-06T07:03:06;4.40;99.80
983;DHT22;480;48.124;11.578;2023-04-06T07:05:34;4.50;99.90
983;DHT22;480;48.124;11.578;2023-04-06T07:08:02;4.70;99.80
983;DHT22;480;48.124;11.578;2023-04-06T07:10:29;5.00;99.60
983;DHT22;480;48.124;11.578;2023-04-06T07:12:56;5.20;99.70
983;DHT22;480;48.124;11.578;2023-04-06T07:15:23;5.40;98.30
983;DHT22;480;48.124;11.578;2023-04-06T07:17:50;5.30;98.70
983;DHT22;480;48.124;11.578;2023-04-06T07:20:20;5.50;98.30
983;DHT22;480;48.124;11.578;2023-04-06T07:22:49;5.80;98.00
983;DHT22;480;48.124;11.578;2023-04-06T07:25:16;5.90;97.50
983;DHT22;480;48.124;11.578;2023-04-06T07:27:43;5.90;97.80
983;DHT22;480;48.124;11.578;2023-04-06T07:30:11;5.60;97.80
983;DHT22;480;48.124;11.578;2023-04-06T07:32:38;5.70;98.20
983;DHT22;480;48.124;11.578;2023-04-06T07:35:05;5.80;98.10
983;DHT22;480;48.124;11.578;2023-04-06T07:37:32;5.70;98.40
983;DHT22;480;48.124;11.578;2023-04-06T07:40:02;5.60;98.00
983;DHT22;480;48.124;11.578;2023-04-06T07:42:29;5.80;97.90
983;DHT22;480;48.124;11.578;2023-04-06T07:44:56;5.80;97.30
983;DHT22;480;48.124;11.578;2023-04-06T07:47:23;5.80;97.40
983;DHT22;480;48.124;11.578;2023-04-06T07:49:50;6.10;97.20
983;DHT22;480;48.124;11.578;2023-04-06T07:52:18;6.20;96.40
983;DHT22;480;48.124;11.578;2023-04-06T07:54:45;6.30;96.90
983;DHT22;480;48.124;11.578;2023-04-06T07:57:15;6.10;96.40
983;DHT22;480;48.124;11.578;2023-04-06T07:59:42;6.10;96.40
983;DHT22;480;48.124;11.578;2023-04-06T08:02:09;6.30;95.80
983;DHT22;480;48.124;11.578;2023-04-06T08:04:36;6.50;95.20
983;DHT22;480;48.124;11.578;2023-04-06T08:07:03;6.70;95.50
983;DHT22;480;48.124;11.578;2023-04-06T08:09:30;7.00;95.00
983;DHT22;480;48.124;11.578;2023-04-06T08:11:57;7.20;94.50
983;DHT22;480;48.124;11.578;2023-04-06T08:14:26;7.40;93.70
983;DHT22;480;48.124;11.578;2023-04-06T08:16:53;7.40;93.90
983;DHT22;480;48.124;11.578;2023-04-06T08:19:21;7.30;93.60
983;DHT22;480;48.124;11.578;2023-04-06T08:21:48;7.20;93.20
983;DHT22;480;48.124;11.578;2023-04-06T08:24:18;7.30;93.50
983;DHT22;480;48.124;11.578;2023-04-06T08:26:45;7.40;92.80
983;DHT22;480;48.124;11.578;2023-04-06T08:29:13;7.80;92.50
983;DHT22;480;48.124;11.578;2023-04-06T08:31:41;7.90;91.50
983;DHT22;480;48.124;11.578;2023-04-06T08:34:11;7.70;91.00
983;DHT22;480;48.124;11.578;2023-04-06T08:36:39;8.10;91.30
983;DHT22;480;48.124;11.578;2023-04-06T08:39:06;8.00;91.10
983;DHT22;480;48.124;11.578;2023-04-06T08:41:33;8.20;91.60
983;DHT22;480;48.124;11.578;2023-04-06T08:44:02;8.40;91.40
983;DHT22;480;48.124;11.578;2023-04-06T08:46:30;8.40;91.10
983;DHT22;480;48.124;11.578;2023-04-06T08:49:00;8.40;90.60
983;DHT22;480;48.124;11.578;2023-04-06T08:51:29;8.60;90.90
983;DHT22;480;48.124;11.578;2023-04-06T08:53:57;8.20;90.50
983;DHT22;480;48.124;11.578;2023-04-06T08:56:25;8.00;90.70
983;DHT22;480;48.124;11.578;2023-04-06T08:58:55;8.10;90.90
983;DHT22;480;48.124;11.578;2023-04-06T09:01:25;7.80;90.90
983;DHT22;480;48.124;11.578;2023-04-06T09:03:56;7.90;90.90
983;DHT22;480;48.124;11.578;2023-04-06T09:06:25;8.10;90.70
983;DHT22;480;48.124;11.578;2023-04-06T09:08:56;8.40;90.10
983;DHT22;480;48.124;11.578;2023-04-06T09:11:25;8.50;90.20
983;DHT22;480;48.124;11.578;2023-04-06T09:13:53;8.50;89.70
983;DHT22;480;48.124;11.578;2023-04-06T09:16:22;8.30;90.20
983;DHT22;480;48.124;11.578;2023-04-06T09:18:49;8.10;90.00
983;DHT22;480;48.124;11.578;2023-04-06T09:21:18;8.30;90.30
983;DHT22;480;48.124;11.578;2023-04-06T09:23:47;8.50;90.30
983;DHT22;480;48.124;11.578;2023-04-06T09:26:15;8.80;89.50
983;DHT22;480;48.124;11.578;2023-04-06T09:28:47;8.70;88.50
983;DHT22;480;48.124;11.578;2023-04-06T09:31:15;8.90;89.40
983;DHT22;480;48.124;11.578;2023-04-06T09:33:44;9.30;90.00
983;DHT22;480;48.124;11.578;2023-04-06T09:36:12;9.60;89.60
983;DHT22;480;48.124;11.578;2023-04-06T09:38:53;9.80;86.60
983;DHT22;480;48.124;11.578;2023-04-06T09:41:22;9.70;87.50
983;DHT22;480;48.124;11.578;2023-04-06T09:43:50;9.80;87.80
983;DHT22;480;48.124;11.578;2023-04-06T09:46:21;9.50;87.70
983;DHT22;480;48.124;11.578;2023-04-06T09:48:49;9.70;88.20
983;DHT22;480;48.124;11.578;2023-04-06T09:51:18;9.80;87.40
983;DHT22;480;48.124;11.578;2023-04-06T09:53:52;9.90;86.50
983;DHT22;480;48.124;11.578;2023-04-06T09:56:23;10.00;85.20
983;DHT22;480;48.124;11.578;2023-04-06T09:58:55;10.00;85.10
983;DHT22;480;48.124;11.578;2023-04-06T10:01:27;10.40;85.60
983;DHT22;480;48.124;11.578;2023-04-06T10:04:05;10.60;83.50
983;DHT22;480;48.124;11.578;2023-04-06T10:06:35;10.40;84.00
983;DHT22;480;48.124;11.578;2023-04-06T10:09:04;10.40;83.80
983;DHT22;480;48.124;11.578;2023-04-06T10:11:33;10.20;82.90
983;DHT22;480;48.124;11.578;2023-04-06T10:14:01;9.90;85.10
983;DHT22;480;48.124;11.578;2023-04-06T10:16:28;9.90;84.90
983;DHT22;480;48.124;11.578;2023-04-06T10:19:01;9.80;85.90
983;DHT22;480;48.124;11.578;2023-04-06T10:21:29;9.70;86.20
983;DHT22;480;48.124;11.578;2023-04-06T10:23:59;9.70;85.90
983;DHT22;480;48.124;11.578;2023-04-06T10:26:29;9.80;85.30
983;DHT22;480;48.124;11.578;2023-04-06T10:29:03;10.10;83.70
983;DHT22;480;48.124;11.578;2023-04-06T10:31:30;10.50;84.30
983;DHT22;480;48.124;11.578;2023-04-06T10:33:59;10.90;83.90
983;DHT22;480;48.124;11.578;2023-04-06T10:36:28;11.30;83.20
983;DHT22;480;48.124;11.578;2023-04-06T10:38:57;11.50;81.50
983;DHT22;480;48.124;11.578;2023-04-06T10:41:33;10.90;80.10
983;DHT22;480;48.124;11.578;2023-04-06T10:44:01;11.20;81.40
983;DHT22;480;48.124;11.578;2023-04-06T10:46:29;11.20;82.20
983;DHT22;480;48.124;11.578;2023-04-06T10:48:57;11.10;81.50
983;DHT22;480;48.124;11.578;2023-04-06T10:51:26;11.00;81.70
983;DHT22;480;48.124;11.578;2023-04-06T10:53:55;10.70;81.30
983;DHT22;480;48.124;11.578;2023-04-06T10:56:24;10.70;81.10
983;DHT22;480;48.124;11.578;2023-04-06T10:58:55;10.90;81.40
983;DHT22;480;48.124;11.578;2023-04-06T11:01:24;11.50;82.60
983;DHT22;480;48.124;11.578;2023-04-06T11:03:53;11.90;80.00
983;DHT22;480;48.124;11.578;2023-04-06T11:06:22;12.20;80.50
983;DHT22;480;48.124;11.578;2023-04-06T11:08:51;12.30;80.30
983;DHT22;480;48.124;11.578;2023-04-06T11:11:19;12.40;79.70
983;DHT22;480;48.124;11.578;2023-04-06T11:13:49;12.80;79.50
983;DHT22;480;48.124;11.578;2023-04-06T11:16:19;12.90;80.30
983;DHT22;480;48.124;11.578;2023-04-06T11:18:51;13.00;79.00
983;DHT22;480;48.124;11.578;2023-04-06T11:21:19;13.00;76.60
983;DHT22;480;48.124;11.578;2023-04-06T11:23:47;12.80;76.70
983;DHT22;480;48.124;11.578;2023-04-06T11:26:14;12.80;77.80
983;DHT22;480;48.124;11.578;2023-04-06T11:28:42;13.00;77.10
983;DHT22;480;48.124;11.578;2023-04-06T11:31:10;13.00;76.50
983;DHT22;480;48.124;11.578;2023-04-06T11:33:39;12.80;76.60
983;DHT22;480;48.124;11.578;2023-04-06T11:36:07;12.70;77.00
983;DHT22;480;48.124;11.578;2023-04-06T11:38:34;13.00;76.40
983;DHT22;480;48.124;11.578;2023-04-06T11:41:05;12.90;75.90
983;DHT22;480;48.124;11.578;2023-04-06T11:43:33;13.00;75.10
983;DHT22;480;48.124;11.578;2023-04-06T11:46:02;13.20;76.40
983;DHT22;480;48.124;11.578;2023-04-06T11:48:29;13.50;76.20
983;DHT22;480;48.124;11.578;2023-04-06T11:50:59;13.50;75.60
983;DHT22;480;48.124;11.578;2023-04-06T11:53:27;13.30;75.90
983;DHT22;480;48.124;11.578;2023-04-06T11:55:55;13.40;76.70
983;DHT22;480;48.124;11.578;2023-04-06T11:58:22;13.40;74.60
983;DHT22;480;48.124;11.578;2023-04-06T12:00:49;13.40;76.20
983;DHT22;480;48.124;11.578;2023-04-06T12:03:17;13.50;77.60
983;DHT22;480;48.124;11.578;2023-04-06T12:05:44;14.10;73.90
983;DHT22;480;48.124;11.578;2023-04-06T12:08:13;14.30;73.40
983;DHT22;480;48.124;11.578;2023-04-06T12:10:40;14.30;75.00
983;DHT22;480;48.124;11.578;2023-04-06T12:13:07;14.40;74.00
983;DHT22;480;48.124;11.578;2023-04-06T12:15:34;14.10;73.00
983;DHT22;480;48.124;11.578;2023-04-06T12:18:01;14.10;73.50
983;DHT22;480;48.124;11.578;2023-04-06T12:20:28;13.60;75.10
983;DHT22;480;48.124;11.578;2023-04-06T12:22:55;13.50;76.60
983;DHT22;480;48.124;11.578;2023-04-06T12:25:24;13.60;76.20
983;DHT22;480;48.124;11.578;2023-04-06T12:27:51;13.60;75.00
983;DHT22;480;48.124;11.578;2023-04-06T12:30:18;13.50;75.20
983;DHT22;480;48.124;11.578;2023-04-06T12:32:45;13.90;74.30
983;DHT22;480;48.124;11.578;2023-04-06T12:35:12;13.50;72.70
983;DHT22;480;48.124;11.578;2023-04-06T12:37:41;13.40;72.60
983;DHT22;480;48.124;11.578;2023-04-06T12:40:09;13.40;74.20
983;DHT22;480;48.124;11.578;2023-04-06T12:42:40;13.80;74.70
983;DHT22;480;48.124;11.578;2023-04-06T12:45:09;14.30;74.50
983;DHT22;480;48.124;11.578;2023-04-06T12:47:36;14.30;71.50
983;DHT22;480;48.124;11.578;2023-04-06T12:50:04;13.90;72.50
983;DHT22;480;48.124;11.578;2023-04-06T12:52:32;14.10;72.70
983;DHT22;480;48.124;11.578;2023-04-06T12:55:01;14.10;71.80
983;DHT22;480;48.124;11.578;2023-04-06T12:57:28;13.80;72.10
983;DHT22;480;48.124;11.578;2023-04-06T12:59:57;13.50;71.60
983;DHT22;480;48.124;11.578;2023-04-06T13:02:25;13.80;71.50
983;DHT22;480;48.124;11.578;2023-04-06T13:04:52;13.30;70.10
983;DHT22;480;48.124;11.578;2023-04-06T13:07:19;13.30;71.40
983;DHT22;480;48.124;11.578;2023-04-06T13:09:46;13.70;71.70
983;DHT22;480;48.124;11.578;2023-04-06T13:12:15;14.10;72.30
983;DHT22;480;48.124;11.578;2023-04-06T13:14:42;14.10;71.70
983;DHT22;480;48.124;11.578;2023-04-06T13:17:10;13.80;73.10
983;DHT22;480;48.124;11.578;2023-04-06T13:19:37;13.40;73.20
983;DHT22;480;48.124;11.578;2023-04-06T13:22:05;13.10;74.10
983;DHT22;480;48.124;11.578;2023-04-06T13:24:32;13.00;73.40
983;DHT22;480;48.124;11.578;2023-04-06T13:26:59;12.90;74.30
983;DHT22;480;48.124;11.578;2023-04-06T13:29:28;12.90;74.40
983;DHT22;480;48.124;11.578;2023-04-06T13:31:55;13.20;74.40
983;DHT22;480;48.124;11.578;2023-04-06T13:34:23;13.20;72.00
983;DHT22;480;48.124;11.578;2023-04-06T13:36:51;13.00;71.90
983;DHT22;480;48.124;11.578;2023-04-06T13:39:18;12.60;71.80
983;DHT22;480;48.124;11.578;2023-04-06T13:41:45;12.50;73.00
983;DHT22;480;48.124;11.578;2023-04-06T13:44:12;12.30;73.20
983;DHT22;480;48.124;11.578;2023-04-06T13:46:39;12.40;74.50
983;DHT22;480;48.124;11.578;2023-04-06T13:49:06;12.60;74.80
983;DHT22;480;48.124;11.578;2023-04-06T13:51:34;12.80;74.50
983;DHT22;480;48.124;11.578;2023-04-06T13:54:02;13.10;74.10
983;DHT22;480;48.124;11.578;2023-04-06T13:56:28;13.00;73.70
983;DHT22;480;48.124;11.578;2023-04-06T13:58:56;13.20;73.80
983;DHT22;480;48.124;11.578;2023-04-06T14:01:24;13.20;72.70
983;DHT22;480;48.124;11.578;2023-04-06T14:03:52;13.80;72.60
983;DHT22;480;48.124;11.578;2023-04-06T14:06:19;13.90;72.30
983;DHT22;480;48.124;11.578;2023-04-06T14:08:47;13.80;72.20
983;DHT22;480;48.124;11.578;2023-04-06T14:11:15;13.60;73.40
983;DHT22;480;48.124;11.578;2023-04-06T14:13:42;13.60;73.60
983;DHT22;480;48.124;11.578;2023-04-06T14:16:09;13.60;73.40
983;DHT22;480;48.124;11.578;2023-04-06T14:18:37;13.60;72.70
983;DHT22;480;48.124;11.578;2023-04-06T14:21:04;13.50;74.20
983;DHT22;480;48.124;11.578;2023-04-06T14:23:31;13.50;74.30
983;DHT22;480;48.124;11.578;2023-04-06T14:26:03;13.70;73.80
983;DHT22;480;48.124;11.578;2023-04-06T14:28:31;14.10;73.40
983;DHT22;480;48.124;11.578;2023-04-06T14:30:58;14.10;73.00
983;DHT22;480;48.124;11.578;2023-04-06T14:33:25;13.90;73.20
983;DHT22;480;48.124;11.578;2023-04-06T14:35:52;13.90;72.50
983;DHT22;480;48.124;11.578;2023-04-06T14:38:20;13.80;72.60
983;DHT22;480;48.124;11.578;2023-04-06T14:40:47;13.60;71.60
983;DHT22;480;48.124;11.578;2023-04-06T14:43:15;13.40;72.20
983;DHT22;480;48.124;11.578;2023-04-06T14:45:42;13.50;72.20
983;DHT22;480;48.124;11.578;2023-04-06T14:48:09;13.50;72.90
983;DHT22;480;48.124;11.578;2023-04-06T14:50:38;13.20;72.30
983;DHT22;480;48.124;11.578;2023-04-06T14:53:05;12.70;72.50
983;DHT22;480;48.124;11.578;2023-04-06T14:55:32;12.40;73.30
983;DHT22;480;48.124;11.578;2023-04-06T14:57:59;12.40;74.40
983;DHT22;480;48.124;11.578;2023-04-06T15:00:28;12.30;74.40
983;DHT22;480;48.124;11.578;2023-04-06T15:02:55;12.20;73.40
983;DHT22;480;48.124;11.578;2023-04-06T15:05:21;12.30;74.30
983;DHT22;480;48.124;11.578;2023-04-06T15:07:49;12.40;73.60
983;DHT22;480;48.124;11.578;2023-04-06T15:10:16;12.60;74.80
983;DHT22;480;48.124;11.578;2023-04-06T15:12:43;12.90;73.10
983;DHT22;480;48.124;11.578;2023-04-06T15:15:10;13.30;73.60
983;DHT22;480;48.124;11.578;2023-04-06T15:17:38;13.50;73.50
983;DHT22;480;48.124;11.578;2023-04-06T15:20:06;13.50;72.20
983;DHT22;480;48.124;11.578;2023-04-06T15:22:33;13.60;72.40
983;DHT22;480;48.124;11.578;2023-04-06T15:25:01;13.80;71.00
983;DHT22;480;48.124;11.578;2023-04-06T15:27:28;14.20;72.60
983;DHT22;480;48.124;11.578;2023-04-06T15:29:57;14.60;70.30
983;DHT22;480;48.124;11.578;2023-04-06T15:32:25;15.00;66.90
983;DHT22;480;48.124;11.578;2023-04-06T15:34:56;14.70;69.30
983;DHT22;480;48.124;11.578;2023-04-06T15:37:23;14.40;67.50
983;DHT22;480;48.124;11.578;2023-04-06T15:39:50;14.20;67.40
983;DHT22;480;48.124;11.578;2023-04-06T15:42:17;13.70;67.20
983;DHT22;480;48.124;11.578;2023-04-06T15:44:44;13.20;68.10
983;DHT22;480;48.124;11.578;2023-04-06T15:47:11;12.80;68.90
983;DHT22;480;48.124;11.578;2023-04-06T15:49:38;12.70;69.40
983;DHT22;480;48.124;11.578;2023-04-06T15:52:06;13.00;69.00
983;DHT22;480;48.124;11.578;2023-04-06T15:54:33;13.40;69.50
983;DHT22;480;48.124;11.578;2023-04-06T15:57:06;13.70;67.90
983;DHT22;480;48.124;11.578;2023-04-06T15:59:33;14.00;67.90
983;DHT22;480;48.124;11.578;2023-04-06T16:02:00;14.20;67.10
983;DHT22;480;48.124;11.578;2023-04-06T16:04:27;13.80;66.60
983;DHT22;480;48.124;11.578;2023-04-06T16:06:54;13.40;67.80
983;DHT22;480;48.124;11.578;2023-04-06T16:09:23;13.00;67.80
983;DHT22;480;48.124;11.578;2023-04-06T16:11:51;12.80;69.50
983;DHT22;480;48.124;11.578;2023-04-06T16:14:18;12.50;69.10
983;DHT22;480;48.124;11.578;2023-04-06T16:16:46;12.30;69.50
983;DHT22;480;48.124;11.578;2023-04-06T16:19:14;12.10;69.60
983;DHT22;480;48.124;11.578;2023-04-06T16:21:41;11.90;69.70
983;DHT22;480;48.124;11.578;2023-04-06T16:24:08;11.80;70.30
983;DHT22;480;48.124;11.578;2023-04-06T16:26:37;11.70;71.10
983;DHT22;480;48.124;11.578;2023-04-06T16:29:04;11.60;71.00
983;DHT22;480;48.124;11.578;2023-04-06T16:31:31;11.60;71.50